createdAt,value
2022-10-06T00:01:49.509Z,75.79
2022-10-06T00:04:19.015Z,75.51
2022-10-06T00:06:49.089Z,76.00
2022-10-06T00:09:18.828Z,76.11
2022-10-06T00:11:48.560Z,76.45
2022-10-06T00:14:18.005Z,76.00
2022-10-06T00:16:47.744Z,76.47
2022-10-06T00:19:17.483Z,75.99
2022-10-06T00:21:47.346Z,75.40
2022-10-06T00:24:16.867Z,74.99
2022-10-06T00:26:47.263Z,74.95
2022-10-06T00:29:17.010Z,74.76
2022-10-06T00:31:47.138Z,74.59
2022-10-06T00:34:16.898Z,74.43
2022-10-06T00:36:47.090Z,74.32
2022-10-06T00:39:16.816Z,74.71
2022-10-06T00:41:46.859Z,74.09
2022-10-06T00:44:16.630Z,73.61
2022-10-06T00:46:54.577Z,73.56
2022-10-06T00:49:36.155Z,73.40
2022-10-06T00:52:10.846Z,73.36
2022-10-06T00:54:41.939Z,72.92
2022-10-06T00:57:13.024Z,73.08
2022-10-06T00:59:43.075Z,72.63
2022-10-06T01:02:18.402Z,72.51
2022-10-06T01:04:52.995Z,72.60
2022-10-06T01:07:25.307Z,72.60
2022-10-06T01:09:57.146Z,72.71
2022-10-06T01:12:29.671Z,72.64
2022-10-06T01:14:59.476Z,72.11
2022-10-06T01:17:44.765Z,72.25
2022-10-06T01:20:19.429Z,72.22
2022-10-06T01:23:05.213Z,72.51
2022-10-06T01:25:35.775Z,72.04
2022-10-06T01:28:10.667Z,73.13
2022-10-06T01:30:51.029Z,73.25
2022-10-06T01:33:23.126Z,73.25
2022-10-06T01:35:54.449Z,72.54
2022-10-06T01:38:26.109Z,72.65
2022-10-06T01:40:57.738Z,72.94
2022-10-06T01:43:27.562Z,72.93
2022-10-06T01:45:59.195Z,72.70
2022-10-06T01:48:29.511Z,72.57
2022-10-06T01:51:00.651Z,72.50
2022-10-06T01:53:30.106Z,72.50
2022-10-06T01:56:02.823Z,72.92
2022-10-06T01:58:33.087Z,72.94
2022-10-06T02:01:07.497Z,72.51
2022-10-06T02:03:39.438Z,72.20
2022-10-06T02:06:12.272Z,72.27
2022-10-06T02:08:43.701Z,72.45
2022-10-06T02:11:13.966Z,72.16
2022-10-06T02:13:44.441Z,72.20
2022-10-06T02:16:14.463Z,72.20
2022-10-06T02:18:45.227Z,72.21
2022-10-06T02:21:19.720Z,72.21
2022-10-06T02:23:49.713Z,72.08
2022-10-06T02:26:19.963Z,72.04
2022-10-06T02:28:53.072Z,72.44
2022-10-06T02:31:24.636Z,72.86
2022-10-06T02:33:54.787Z,73.34
2022-10-06T02:36:24.568Z,72.54
2022-10-06T02:38:54.763Z,72.86
2022-10-06T02:41:25.624Z,72.86
2022-10-06T02:43:55.891Z,73.44
2022-10-06T02:46:25.900Z,73.67
2022-10-06T02:48:56.045Z,73.90
2022-10-06T02:51:26.157Z,73.73
2022-10-06T02:53:56.171Z,73.73
2022-10-06T02:56:27.081Z,73.94
2022-10-06T02:58:56.847Z,74.09
2022-10-06T03:01:29.599Z,73.95
2022-10-06T03:04:03.671Z,73.95
2022-10-06T03:06:33.557Z,74.21
2022-10-06T03:09:10.053Z,74.14
2022-10-06T03:11:45.508Z,75.13
2022-10-06T03:14:21.595Z,75.13
2022-10-06T03:16:48.146Z,74.22
2022-10-06T03:19:19.900Z,74.22
2022-10-06T03:21:50.061Z,74.12
2022-10-06T03:24:19.638Z,73.86
2022-10-06T03:26:51.103Z,73.86
2022-10-06T03:29:20.997Z,73.59
2022-10-06T03:31:52.765Z,73.52
2022-10-06T03:34:22.586Z,74.31
2022-10-06T03:36:52.015Z,74.50
2022-10-06T03:39:23.438Z,74.10
2022-10-06T03:41:53.245Z,73.68
2022-10-06T03:44:23.267Z,73.88
2022-10-06T03:46:53.766Z,73.55
2022-10-06T03:49:23.643Z,73.99
2022-10-06T03:51:55.404Z,74.53
2022-10-06T03:54:27.061Z,74.53
2022-10-06T03:56:57.521Z,74.21
2022-10-06T03:59:28.967Z,74.40
2022-10-06T04:02:00.198Z,74.60
2022-10-06T04:04:31.406Z,74.60
2022-10-06T04:07:02.936Z,74.77
2022-10-06T04:09:33.143Z,74.45
2022-10-06T04:12:03.421Z,74.71
2022-10-06T04:14:34.881Z,74.73
2022-10-06T04:17:05.285Z,74.65
2022-10-06T04:19:36.744Z,73.98
2022-10-06T04:22:08.834Z,74.56
2022-10-06T04:24:38.787Z,74.68
2022-10-06T04:27:25.995Z,74.71
2022-10-06T04:29:58.440Z,74.39
2022-10-06T04:32:29.352Z,74.29
2022-10-06T04:34:58.962Z,74.67
2022-10-06T04:37:29.255Z,74.67
2022-10-06T04:39:59.774Z,74.90
2022-10-06T04:45:04.769Z,75.44
2022-10-06T04:47:35.200Z,75.00
2022-10-06T04:50:07.609Z,74.77
2022-10-06T04:52:37.864Z,74.57
2022-10-06T04:55:08.457Z,75.00
2022-10-06T04:57:38.263Z,75.30
2022-10-06T05:00:23.003Z,75.47
2022-10-06T05:02:56.455Z,75.34
2022-10-06T05:05:26.375Z,75.48
2022-10-06T05:07:57.125Z,75.92
2022-10-06T05:10:28.393Z,75.45
2022-10-06T05:12:59.222Z,75.29
2022-10-06T05:15:29.104Z,75.40
2022-10-06T05:17:59.523Z,75.62
2022-10-06T05:20:29.131Z,75.00
2022-10-06T05:22:59.364Z,75.53
2022-10-06T05:25:29.187Z,75.31
2022-10-06T05:27:59.038Z,75.70
2022-10-06T05:30:28.922Z,76.27
2022-10-06T05:32:58.842Z,75.76
2022-10-06T05:35:28.945Z,75.36
2022-10-06T05:37:59.058Z,76.04
2022-10-06T05:40:28.957Z,75.46
2022-10-06T05:42:58.945Z,75.54
2022-10-06T05:45:28.984Z,75.70
2022-10-06T05:47:59.026Z,75.92
2022-10-06T05:50:28.655Z,76.07
2022-10-06T05:52:59.053Z,75.68
2022-10-06T05:55:29.056Z,76.32
2022-10-06T05:57:58.815Z,76.18
2022-10-06T06:00:28.627Z,76.62
2022-10-06T06:02:58.567Z,75.92
2022-10-06T06:05:28.466Z,76.18
2022-10-06T06:07:58.199Z,75.98
2022-10-06T06:10:28.076Z,76.61
2022-10-06T06:12:58.051Z,76.00
2022-10-06T06:15:47.006Z,75.80
2022-10-06T06:18:15.773Z,75.80
2022-10-06T06:20:45.536Z,75.88
2022-10-06T06:23:15.285Z,76.54
2022-10-06T06:25:45.032Z,76.51
2022-10-06T06:28:14.965Z,77.08
2022-10-06T06:30:45.497Z,76.97
2022-10-06T06:33:15.384Z,75.86
2022-10-06T06:35:45.300Z,75.19
2022-10-06T06:38:15.113Z,75.16
2022-10-06T06:40:44.645Z,75.43
2022-10-06T06:43:15.866Z,74.91
2022-10-06T06:46:04.985Z,75.02
2022-10-06T06:48:53.947Z,75.40
2022-10-06T06:51:24.640Z,75.98
2022-10-06T06:53:55.180Z,75.21
2022-10-06T06:56:24.824Z,74.65
2022-10-06T06:58:55.004Z,75.03
2022-10-06T07:01:25.331Z,75.22
2022-10-06T07:03:59.313Z,74.56
2022-10-06T07:06:31.871Z,73.60
2022-10-06T07:09:03.619Z,73.39
2022-10-06T07:11:36.088Z,72.90
2022-10-06T07:14:12.654Z,73.06
2022-10-06T07:17:02.787Z,72.80
2022-10-06T07:19:50.233Z,72.58
2022-10-06T07:22:41.606Z,72.40
2022-10-06T07:25:26.310Z,71.86
2022-10-06T07:28:00.364Z,71.20
2022-10-06T07:30:34.147Z,70.35
2022-10-06T07:33:05.810Z,70.72
2022-10-06T07:35:35.833Z,70.00
2022-10-06T07:38:07.340Z,69.83
2022-10-06T07:40:46.229Z,69.29
2022-10-06T07:43:11.871Z,68.94
2022-10-06T07:45:46.967Z,68.69
2022-10-06T07:48:37.983Z,68.57
2022-10-06T07:51:16.413Z,68.60
2022-10-06T07:53:48.159Z,68.01
2022-10-06T07:56:21.233Z,67.45
2022-10-06T07:58:52.406Z,67.02
2022-10-06T08:01:22.263Z,66.54
2022-10-06T08:03:52.022Z,66.52
2022-10-06T08:08:53.135Z,66.42
2022-10-06T08:11:23.183Z,66.12
2022-10-06T08:13:53.141Z,65.65
2022-10-06T08:16:27.248Z,65.03
2022-10-06T08:18:58.210Z,65.49
2022-10-06T08:21:31.211Z,65.07
2022-10-06T08:24:02.041Z,64.50
2022-10-06T08:26:33.200Z,64.25
2022-10-06T08:29:03.747Z,64.79
2022-10-06T08:31:33.912Z,65.71
2022-10-06T08:34:06.656Z,64.75
2022-10-06T08:36:35.783Z,64.46
2022-10-06T08:39:07.105Z,64.61
2022-10-06T08:41:50.089Z,64.07
2022-10-06T08:44:30.226Z,63.45
2022-10-06T08:47:03.718Z,63.10
2022-10-06T08:49:39.570Z,62.57
2022-10-06T08:52:21.224Z,61.78
2022-10-06T08:55:06.089Z,61.40
2022-10-06T08:57:56.902Z,61.35
2022-10-06T09:00:28.397Z,61.38
2022-10-06T09:02:58.133Z,60.06
2022-10-06T09:05:30.599Z,60.06
2022-10-06T09:08:25.948Z,60.42
2022-10-06T09:11:22.938Z,60.77
2022-10-06T09:13:56.463Z,59.15
2022-10-06T09:16:31.739Z,59.25
2022-10-06T09:19:08.708Z,57.30
2022-10-06T09:21:39.366Z,55.93
2022-10-06T09:24:19.542Z,57.64
2022-10-06T09:26:52.040Z,57.28
2022-10-06T09:29:21.837Z,55.85
2022-10-06T09:31:51.679Z,54.59
2022-10-06T09:34:49.997Z,54.56
2022-10-06T09:37:20.307Z,55.89
2022-10-06T09:39:52.101Z,53.46
2022-10-06T09:42:25.032Z,53.46
2022-10-06T09:45:04.896Z,54.24
2022-10-06T09:47:39.198Z,53.85
2022-10-06T09:50:23.504Z,52.90
2022-10-06T09:53:03.543Z,52.24
2022-10-06T09:55:38.886Z,52.49
2022-10-06T09:58:33.655Z,52.56
2022-10-06T10:01:12.086Z,52.53
2022-10-06T10:04:15.547Z,51.35
2022-10-06T10:06:27.473Z,51.86
2022-10-06T10:09:22.416Z,52.01
2022-10-06T10:12:25.024Z,52.51
2022-10-06T10:15:12.689Z,51.35
2022-10-06T10:17:50.871Z,50.27
2022-10-06T10:20:38.098Z,50.75
2022-10-06T10:23:30.928Z,50.65
2022-10-06T10:29:09.006Z,49.62
2022-10-06T10:32:04.063Z,48.49
2022-10-06T10:34:54.690Z,49.94
2022-10-06T10:37:33.168Z,49.87
2022-10-06T10:40:14.958Z,48.45
2022-10-06T10:42:50.493Z,49.13
2022-10-06T10:45:26.370Z,49.24
2022-10-06T10:47:58.363Z,49.08
2022-10-06T10:50:36.793Z,49.73
2022-10-06T10:53:09.652Z,49.40
2022-10-06T10:55:42.523Z,50.49
2022-10-06T10:58:24.988Z,50.40
2022-10-06T11:00:57.863Z,50.58
2022-10-06T11:03:27.700Z,50.12
2022-10-06T11:06:08.520Z,49.57
2022-10-06T11:08:58.321Z,49.84
2022-10-06T11:11:54.130Z,49.84
2022-10-06T11:14:30.254Z,47.98
2022-10-06T11:17:25.394Z,47.22
2022-10-06T11:20:22.206Z,48.67
2022-10-06T11:23:12.917Z,48.80
2022-10-06T11:25:51.291Z,48.80
2022-10-06T11:28:33.379Z,48.88
2022-10-06T11:31:20.189Z,49.20
2022-10-06T11:33:55.617Z,48.48
2022-10-06T11:36:58.181Z,48.61
2022-10-06T11:39:46.228Z,49.61
2022-10-06T11:42:25.796Z,49.07
2022-10-06T11:45:05.027Z,48.04
2022-10-06T11:47:41.547Z,48.61
2022-10-06T11:50:33.551Z,48.31
2022-10-06T11:53:03.805Z,48.23
2022-10-06T11:55:33.756Z,46.93
2022-10-06T12:00:46.958Z,47.32
2022-10-06T12:03:34.894Z,48.44
2022-10-06T12:06:04.657Z,48.44
2022-10-06T12:08:41.994Z,48.86
2022-10-06T12:11:40.180Z,49.35
2022-10-06T12:15:31.952Z,48.90
2022-10-06T12:19:30.193Z,49.13
2022-10-06T12:22:23.725Z,49.80
2022-10-06T12:25:08.108Z,49.22
2022-10-06T12:27:58.815Z,48.70
2022-10-06T12:31:04.391Z,48.17
2022-10-06T12:33:41.888Z,48.79
2022-10-06T12:36:32.643Z,48.48
2022-10-06T12:39:05.539Z,49.66
2022-10-06T12:42:03.098Z,49.66
2022-10-06T12:44:48.636Z,48.59
2022-10-06T12:47:36.084Z,49.15
2022-10-06T12:53:03.249Z,47.49
2022-10-06T12:55:56.800Z,48.73
2022-10-06T12:58:32.561Z,47.52
2022-10-06T13:01:13.651Z,46.28
2022-10-06T13:03:46.488Z,46.00
2022-10-06T13:06:19.768Z,46.18
2022-10-06T13:09:05.016Z,46.39
2022-10-06T13:11:34.662Z,46.66
2022-10-06T13:14:13.455Z,46.63
2022-10-06T13:16:46.091Z,46.01
2022-10-06T13:19:18.910Z,45.21
2022-10-06T13:21:48.793Z,45.27
2022-10-06T13:24:24.048Z,45.03
2022-10-06T13:26:53.935Z,42.92
2022-10-06T13:29:26.386Z,43.01
2022-10-06T13:31:56.699Z,41.69
2022-10-06T13:34:39.508Z,42.13
2022-10-06T13:39:41.557Z,40.37
2022-10-06T13:42:16.389Z,40.85
2022-10-06T13:44:49.421Z,41.16
2022-10-06T13:47:20.652Z,41.24
2022-10-06T13:49:57.310Z,41.52
2022-10-06T13:52:38.732Z,41.72
2022-10-06T13:55:23.987Z,41.09
2022-10-06T13:58:04.872Z,41.45
2022-10-06T14:00:54.960Z,41.35
2022-10-06T14:03:36.992Z,40.84
2022-10-06T14:06:09.821Z,42.55
2022-10-06T14:08:40.178Z,41.70
2022-10-06T14:11:11.240Z,40.83
2022-10-06T14:13:58.980Z,40.59
2022-10-06T14:16:30.174Z,40.71
2022-10-06T14:19:02.782Z,41.68
2022-10-06T14:21:41.788Z,40.59
2022-10-06T14:24:20.606Z,41.02
2022-10-06T14:26:51.096Z,40.23
2022-10-06T14:29:21.272Z,40.30
2022-10-06T14:31:51.366Z,40.10
2022-10-06T14:34:22.707Z,40.52
2022-10-06T14:36:54.550Z,40.20
2022-10-06T14:39:24.287Z,40.47
2022-10-06T14:41:54.061Z,40.23
2022-10-06T14:44:23.795Z,40.48
2022-10-06T14:46:54.107Z,40.54
2022-10-06T14:49:25.301Z,40.60
2022-10-06T14:51:56.404Z,40.60
2022-10-06T14:54:26.139Z,41.05
2022-10-06T14:56:55.930Z,40.95
2022-10-06T14:59:26.444Z,41.21
2022-10-06T15:01:56.166Z,40.67
2022-10-06T15:04:27.671Z,41.49
2022-10-06T15:07:15.014Z,41.52
2022-10-06T15:09:45.057Z,41.94
2022-10-06T15:12:14.785Z,41.59
2022-10-06T15:14:44.545Z,41.06
2022-10-06T15:17:14.267Z,41.56
2022-10-06T15:19:44.067Z,41.96
2022-10-06T15:22:14.161Z,42.22
2022-10-06T15:24:45.923Z,42.24
2022-10-06T15:27:33.268Z,41.72
2022-10-06T15:30:03.053Z,41.76
2022-10-06T15:32:32.972Z,41.90
2022-10-06T15:35:02.995Z,42.20
2022-10-06T15:37:32.470Z,42.40
2022-10-06T15:40:04.147Z,42.66
2022-10-06T15:42:34.205Z,42.03
2022-10-06T15:45:07.509Z,42.18
2022-10-06T15:47:35.893Z,42.95
2022-10-06T15:50:07.358Z,43.28
2022-10-06T15:52:37.091Z,42.92
2022-10-06T15:55:10.437Z,42.69
2022-10-06T15:57:40.220Z,42.75
2022-10-06T16:00:10.643Z,42.75
2022-10-06T16:02:43.400Z,43.28
2022-10-06T16:05:14.792Z,43.53
2022-10-06T16:07:44.614Z,43.30
2022-10-06T16:10:16.800Z,43.42
2022-10-06T16:12:47.960Z,43.93
2022-10-06T16:15:17.709Z,44.15
2022-10-06T16:17:47.728Z,44.13
2022-10-06T16:20:18.966Z,44.68
2022-10-06T16:22:48.747Z,44.94
2022-10-06T16:25:18.189Z,44.75
2022-10-06T16:27:47.953Z,45.52
2022-10-06T16:30:19.126Z,45.37
2022-10-06T16:32:48.884Z,45.32
2022-10-06T16:35:18.699Z,45.64
2022-10-06T16:37:49.818Z,45.91
2022-10-06T16:40:19.292Z,45.91
2022-10-06T16:42:48.757Z,46.12
2022-10-06T16:45:18.559Z,46.59
2022-10-06T16:47:48.251Z,47.02
2022-10-06T16:50:18.448Z,46.87
2022-10-06T16:52:48.251Z,47.16
2022-10-06T16:55:18.300Z,47.83
2022-10-06T16:57:47.732Z,48.20
2022-10-06T17:00:18.477Z,48.26
2022-10-06T17:02:48.192Z,48.67
2022-10-06T17:05:18.004Z,48.96
2022-10-06T17:07:47.747Z,49.31
2022-10-06T17:10:20.896Z,49.98
2022-10-06T17:12:49.671Z,50.29
2022-10-06T17:15:19.548Z,50.81
2022-10-06T17:17:49.596Z,52.44
2022-10-06T17:20:19.081Z,51.65
2022-10-06T17:22:50.171Z,53.06
2022-10-06T17:25:19.918Z,53.08
2022-10-06T17:27:49.658Z,54.38
2022-10-06T17:30:19.384Z,54.41
2022-10-06T17:32:49.152Z,53.85
2022-10-06T17:35:19.759Z,53.84
2022-10-06T17:37:50.173Z,54.24
2022-10-06T17:40:20.594Z,54.55
2022-10-06T17:42:50.315Z,54.73
2022-10-06T17:45:21.357Z,55.37
2022-10-06T17:47:51.698Z,55.56
2022-10-06T17:50:22.546Z,56.21
2022-10-06T17:52:52.296Z,56.79
2022-10-06T17:55:22.498Z,57.20
2022-10-06T17:57:52.404Z,56.56
2022-10-06T18:00:22.352Z,58.21
2022-10-06T18:02:55.313Z,58.18
2022-10-06T18:05:27.494Z,57.41
2022-10-06T18:07:58.478Z,57.63
2022-10-06T18:10:46.009Z,58.17
2022-10-06T18:13:15.866Z,58.77
2022-10-06T18:15:45.958Z,59.20
2022-10-06T18:18:15.770Z,59.20
2022-10-06T18:20:46.787Z,58.57
2022-10-06T18:23:16.947Z,59.10
2022-10-06T18:25:46.696Z,59.78
2022-10-06T18:28:16.182Z,59.68
2022-10-06T18:30:51.297Z,59.51
2022-10-06T18:36:15.006Z,60.83
2022-10-06T18:38:31.183Z,60.83
2022-10-06T18:41:03.669Z,60.26
2022-10-06T18:43:33.626Z,60.46
2022-10-06T18:46:23.445Z,60.80
2022-10-06T18:48:56.134Z,61.41
2022-10-06T18:51:36.908Z,61.20
2022-10-06T18:54:13.387Z,60.87
2022-10-06T18:56:46.313Z,61.30
2022-10-06T18:59:16.563Z,61.10
2022-10-06T19:01:49.037Z,60.99
2022-10-06T19:04:21.060Z,60.73
2022-10-06T19:06:54.090Z,61.50
2022-10-06T19:09:26.252Z,61.89
2022-10-06T19:11:58.210Z,61.53
2022-10-06T19:14:34.281Z,61.33
2022-10-06T19:17:10.607Z,61.81
2022-10-06T19:19:40.620Z,61.86
2022-10-06T19:22:14.171Z,61.15
2022-10-06T19:24:47.208Z,62.18
2022-10-06T19:27:20.707Z,61.73
2022-10-06T19:29:56.795Z,61.52
2022-10-06T19:32:31.340Z,62.16
2022-10-06T19:35:01.130Z,62.17
2022-10-06T19:37:31.930Z,62.63
2022-10-06T19:40:01.978Z,62.25
2022-10-06T19:42:50.836Z,62.71
2022-10-06T19:45:20.854Z,62.50
2022-10-06T19:47:51.357Z,62.76
2022-10-06T19:50:21.349Z,62.89
2022-10-06T19:52:51.599Z,62.68
2022-10-06T19:55:22.799Z,62.82
2022-10-06T19:57:52.884Z,62.97
2022-10-06T20:00:23.213Z,62.89
2022-10-06T20:02:52.949Z,62.94
2022-10-06T20:05:22.770Z,62.62
2022-10-06T20:07:52.583Z,62.90
2022-10-06T20:10:22.340Z,62.38
2022-10-06T20:12:52.124Z,62.52
2022-10-06T20:15:22.533Z,62.64
2022-10-06T20:17:52.286Z,62.61
2022-10-06T20:20:22.040Z,62.28
2022-10-06T20:22:53.868Z,63.42
2022-10-06T20:25:23.509Z,62.96
2022-10-06T20:27:53.277Z,62.62
2022-10-06T20:30:23.240Z,62.16
2022-10-06T20:32:53.461Z,62.63
2022-10-06T20:35:23.214Z,62.63
2022-10-06T20:37:53.039Z,62.41
2022-10-06T20:40:42.488Z,62.42
2022-10-06T20:43:12.289Z,62.73
2022-10-06T20:45:42.098Z,63.10
2022-10-06T20:48:14.245Z,63.43
2022-10-06T20:50:44.515Z,63.66
2022-10-06T20:53:14.762Z,63.53
2022-10-06T20:55:52.346Z,63.13
2022-10-06T20:58:22.100Z,63.30
2022-10-06T21:00:51.994Z,63.63
2022-10-06T21:03:22.099Z,63.45
2022-10-06T21:05:52.538Z,63.60
2022-10-06T21:08:23.033Z,63.66
2022-10-06T21:11:03.215Z,63.71
2022-10-06T21:13:32.713Z,63.62
2022-10-06T21:16:03.029Z,63.68
2022-10-06T21:18:33.662Z,63.97
2022-10-06T21:21:07.194Z,63.87
2022-10-06T21:23:42.207Z,64.15
2022-10-06T21:26:15.564Z,64.15
2022-10-06T21:28:45.843Z,64.37
2022-10-06T21:31:18.146Z,64.22
2022-10-06T21:33:50.253Z,64.43
2022-10-06T21:36:24.877Z,64.29
2022-10-06T21:38:59.373Z,64.63
2022-10-06T21:41:32.308Z,64.74
2022-10-06T21:44:04.668Z,64.91
2022-10-06T21:46:39.404Z,64.38
2022-10-06T21:49:11.877Z,64.49
2022-10-06T21:51:43.615Z,64.30
2022-10-06T21:54:15.167Z,64.30
2022-10-06T21:56:45.151Z,64.86
2022-10-06T21:59:15.058Z,65.11
2022-10-06T22:01:46.635Z,65.56
2022-10-06T22:04:17.092Z,65.42
2022-10-06T22:06:48.860Z,65.30
2022-10-06T22:09:21.230Z,65.37
2022-10-06T22:11:51.214Z,65.35
2022-10-06T22:14:21.069Z,65.62
2022-10-06T22:16:51.106Z,65.30
2022-10-06T22:19:21.216Z,65.54
2022-10-06T22:21:51.023Z,65.63
2022-10-06T22:24:22.498Z,65.71
2022-10-06T22:26:52.223Z,65.56
2022-10-06T22:29:22.328Z,66.35
2022-10-06T22:31:52.153Z,66.35
2022-10-06T22:34:21.888Z,66.28
2022-10-06T22:36:51.649Z,66.94
2022-10-06T22:39:21.373Z,66.59
2022-10-06T22:41:51.119Z,66.95
2022-10-06T22:44:20.552Z,66.97
2022-10-06T22:46:50.338Z,67.03
2022-10-06T22:49:19.926Z,67.49
2022-10-06T22:51:49.374Z,67.18
2022-10-06T22:54:22.102Z,67.17
2022-10-06T22:56:51.842Z,67.71
2022-10-06T22:59:21.576Z,67.95
2022-10-06T23:01:53.260Z,68.31
2022-10-06T23:04:23.296Z,68.31
2022-10-06T23:06:52.796Z,68.52
2022-10-06T23:09:22.516Z,68.16
2022-10-06T23:11:52.349Z,67.78
2022-10-06T23:14:21.918Z,68.53
2022-10-06T23:16:51.751Z,68.25
2022-10-06T23:19:21.608Z,68.28
2022-10-06T23:21:51.401Z,68.28
2022-10-06T23:24:21.455Z,68.49
2022-10-06T23:26:51.193Z,68.89
2022-10-06T23:29:21.308Z,68.43
2022-10-06T23:31:51.210Z,68.55
2022-10-06T23:34:20.838Z,68.42
2022-10-06T23:36:50.575Z,68.91
2022-10-06T23:39:20.315Z,69.40
2022-10-06T23:41:50.414Z,69.76
2022-10-06T23:44:19.941Z,69.68
2022-10-06T23:46:49.754Z,69.70
2022-10-06T23:49:19.846Z,69.30
2022-10-06T23:51:49.607Z,69.23
2022-10-06T23:54:19.416Z,69.28
2022-10-06T23:56:50.505Z,69.83
2022-10-06T23:59:21.073Z,69.83
